Time;durP1;ratioP1;P1;durP2;ratioP2;P2;SDS_P1;SDS_P2;PMS_P1;PMS_P2;Temp;Humidity;BMP_temperature;BMP_pressure;BME280_temperature;BME280_humidity;BME280_pressure;Samples;Min_cycle;Max_cycle;Signal;HPM_P1;HPM_P2
2021/11/30 00:03:25;;;;;;;3.50;2.72;;;;;;;9.02;55.74;98347.13;2372439;83;25688;-82
2021/11/30 00:07:01;;;;;;;4.20;2.80;;;;;;;9.03;55.73;98351.45;2346034;83;25737;-79
2021/11/30 00:10:43;;;;;;;3.55;2.85;;;;;;;9.01;55.69;98351.02;2362163;83;26048;-79
2021/11/30 00:14:04;;;;;;;2.75;2.55;;;;;;;9.02;55.67;98355.37;2361973;83;25656;-79
2021/11/30 00:17:25;;;;;;;3.37;3.07;;;;;;;9.02;55.65;98365.32;2362100;83;28078;-80
2021/11/30 00:20:47;;;;;;;2.60;2.27;;;;;;;9.02;55.62;98365.32;2358007;83;28011;-80
2021/11/30 00:24:09;;;;;;;3.50;2.58;;;;;;;8.99;55.61;98380.48;2338170;83;25239;-80
2021/11/30 00:27:31;;;;;;;3.42;2.42;;;;;;;8.99;55.60;98385.67;2362301;83;25633;-81
2021/11/30 00:30:52;;;;;;;2.95;2.62;;;;;;;8.99;55.59;98388.72;2361938;83;25613;-81
2021/11/30 00:34:14;;;;;;;2.55;2.30;;;;;;;9.01;55.60;98397.39;2362097;83;25257;-80
2021/11/30 00:37:35;;;;;;;3.55;2.12;;;;;;;9.01;55.60;98399.98;2364226;80;25903;-78
2021/11/30 00:40:56;;;;;;;3.80;2.55;;;;;;;8.99;55.55;98399.97;2447623;80;25580;-80
2021/11/30 00:44:22;;;;;;;2.98;2.35;;;;;;;8.98;55.54;98411.24;2448496;80;25687;-80
2021/11/30 00:47:50;;;;;;;2.65;2.42;;;;;;;8.99;55.53;98420.77;2447192;80;25538;-80
2021/11/30 00:51:18;;;;;;;3.05;2.65;;;;;;;8.98;55.52;98424.23;2425939;80;25733;-80
2021/11/30 00:54:41;;;;;;;4.20;2.40;;;;;;;8.99;55.49;98428.99;2444136;80;25659;-80
2021/11/30 00:58:02;;;;;;;2.62;2.42;;;;;;;8.99;55.50;98431.59;2443760;80;25474;-78
2021/11/30 01:01:24;;;;;;;3.55;2.10;;;;;;;8.97;55.48;98432.88;2443001;80;25620;-79
2021/11/30 01:04:47;;;;;;;3.67;2.12;;;;;;;8.97;55.46;98434.18;2414426;80;26280;-82
2021/11/30 01:08:21;;;;;;;2.67;2.47;;;;;;;8.97;55.45;98434.61;2427363;80;25674;-83
2021/11/30 01:11:42;;;;;;;2.55;2.10;;;;;;;8.97;55.43;98438.52;2425581;81;25664;-82
2021/11/30 01:15:09;;;;;;;3.65;2.30;;;;;;;8.97;55.42;98446.31;2426947;81;25964;-82
2021/11/30 01:18:30;;;;;;;3.35;2.45;;;;;;;8.97;55.39;98446.31;2426349;81;25874;-80
2021/11/30 01:21:52;;;;;;;2.27;1.90;;;;;;;8.97;55.38;98452.37;2423429;81;29079;-81
2021/11/30 01:25:13;;;;;;;3.27;2.00;;;;;;;8.97;55.35;98457.56;2426271;80;26368;-79
2021/11/30 01:28:34;;;;;;;3.43;1.93;;;;;;;8.97;55.33;98448.91;2427373;80;29262;-81
2021/11/30 01:31:55;;;;;;;2.73;2.43;;;;;;;8.97;55.33;98456.70;2395220;81;30024;-80
2021/11/30 01:35:19;;;;;;;2.95;1.85;;;;;;;8.97;55.31;98449.77;2421687;81;25668;-80
2021/11/30 01:38:40;;;;;;;2.52;2.25;;;;;;;8.96;55.28;98458.45;2372114;81;25727;-81
2021/11/30 01:42:02;;;;;;;1.85;1.75;;;;;;;8.96;55.26;98463.64;2422405;81;25636;-80
2021/11/30 01:52:55;;;;;;;2.60;1.92;;;;;;;8.93;55.18;98479.23;2412309;81;25653;-81
2021/11/30 01:56:17;;;;;;;2.90;1.92;;;;;;;8.94;55.18;98476.20;2426095;81;25692;-81
2021/11/30 01:59:39;;;;;;;2.90;2.20;;;;;;;8.93;55.16;98480.53;2427502;80;25522;-81
2021/11/30 02:03:00;;;;;;;1.67;1.32;;;;;;;8.93;55.14;98483.56;2427299;81;25621;-80
2021/11/30 02:06:21;;;;;;;2.33;1.70;;;;;;;8.90;55.08;98477.93;2417257;80;25675;-81
2021/11/30 02:09:45;;;;;;;2.75;2.00;;;;;;;8.90;55.05;98474.47;2448899;80;25525;-81
2021/11/30 02:13:07;;;;;;;1.60;1.40;;;;;;;8.89;55.04;98486.60;2448589;80;26451;-80
2021/11/30 02:16:32;;;;;;;1.72;1.20;;;;;;;8.87;54.97;98484.42;2451069;78;25564;-81
2021/11/30 02:20:00;;;;;;;2.62;1.55;;;;;;;8.87;54.94;98488.32;2427532;81;25498;-80
2021/11/30 02:23:47;;;;;;;2.20;1.50;;;;;;;8.86;54.93;98486.60;2398907;81;25620;-80
2021/11/30 02:27:11;;;;;;;1.95;1.50;;;;;;;8.84;54.89;98484.86;2403573;81;25759;-80
2021/11/30 02:30:32;;;;;;;2.47;1.57;;;;;;;8.85;54.90;98495.70;2421078;81;25594;-80
2021/11/30 02:34:07;;;;;;;1.73;1.43;;;;;;;8.84;54.87;98489.65;2401383;81;27869;-82
2021/11/30 02:37:36;;;;;;;3.40;1.40;;;;;;;8.84;54.85;98493.95;2408354;81;25680;-80
2021/11/30 02:40:51;;;;;;;1.40;1.00;;;;;;;8.83;54.84;98493.09;2420018;81;25783;-81
2021/11/30 02:44:38;;;;;;;1.85;1.57;;;;;;;8.83;54.83;98493.09;2409703;81;25629;-81
2021/11/30 02:47:59;;;;;;;2.12;1.62;;;;;;;8.80;54.83;98491.79;2411491;81;25808;-80
2021/11/30 02:51:21;;;;;;;2.12;1.35;;;;;;;8.82;54.83;98493.97;2411799;81;25606;-80
2021/11/30 02:54:46;;;;;;;1.95;1.32;;;;;;;8.82;54.80;98499.16;2416697;81;25696;-80
2021/11/30 02:58:09;;;;;;;1.42;1.10;;;;;;;8.81;54.77;98509.53;2412270;81;25562;-80
2021/11/30 03:01:30;;;;;;;1.85;1.37;;;;;;;8.79;54.76;98509.55;2412937;81;25379;-80
2021/11/30 03:04:56;;;;;;;1.35;1.25;;;;;;;8.80;54.69;98518.20;2403588;81;25653;-79
2021/11/30 03:08:17;;;;;;;2.83;1.47;;;;;;;8.79;54.68;98514.75;2421713;81;25626;-80
2021/11/30 03:11:47;;;;;;;2.33;1.10;;;;;;;8.78;54.65;98519.52;2420362;81;25677;-81
2021/11/30 03:15:28;;;;;;;1.22;1.05;;;;;;;8.77;54.63;98518.20;2416339;80;25673;-80
2021/11/30 03:18:58;;;;;;;1.77;1.20;;;;;;;8.74;54.58;98522.55;2412599;81;25688;-80
2021/11/30 03:22:38;;;;;;;1.82;1.35;;;;;;;8.74;54.58;98535.94;2415658;81;25981;-79
2021/11/30 03:26:00;;;;;;;1.22;0.90;;;;;;;8.74;54.57;98529.45;2417656;80;25446;-79
2021/11/30 03:29:24;;;;;;;1.92;1.32;;;;;;;8.74;54.57;98527.75;2415117;80;25717;-80
2021/11/30 03:37:07;;;;;;;2.47;1.10;;;;;;;8.73;54.58;98543.31;2406930;81;25832;-81
2021/11/30 03:40:55;;;;;;;1.82;1.20;;;;;;;8.72;54.57;98540.29;2414344;81;26138;-82
2021/11/30 03:44:25;;;;;;;1.15;0.80;;;;;;;8.69;54.57;98537.69;2416339;81;25693;-81
2021/11/30 03:47:49;;;;;;;1.32;1.12;;;;;;;8.71;54.53;98539.86;2408399;81;25656;-81
2021/11/30 03:51:52;;;;;;;0.90;0.75;;;;;;;8.70;54.51;98536.38;2414115;81;26344;-81
2021/11/30 03:55:17;;;;;;;1.35;0.82;;;;;;;8.69;54.49;98551.53;2423888;81;26248;-81
2021/11/30 03:58:38;;;;;;;1.37;0.80;;;;;;;8.69;54.49;98555.43;2425300;81;25672;-81
2021/11/30 04:01:59;;;;;;;1.60;1.10;;;;;;;8.68;54.48;98548.52;2424940;81;29015;-79
2021/11/30 04:05:23;;;;;;;1.25;0.90;;;;;;;8.67;54.44;98545.48;2421291;80;29064;-80
2021/11/30 04:08:44;;;;;;;1.82;0.70;;;;;;;8.67;54.43;98548.49;2416767;81;25701;-79
2021/11/30 04:12:09;;;;;;;0.93;0.70;;;;;;;8.66;54.43;98546.33;2404626;81;26309;-81
2021/11/30 04:15:30;;;;;;;1.47;0.90;;;;;;;8.66;54.41;98554.13;2413991;80;25657;-79
2021/11/30 04:18:51;;;;;;;1.95;1.05;;;;;;;8.67;54.39;98556.28;2425045;81;25676;-82
2021/11/30 04:22:20;;;;;;;1.08;0.86;;;;;;;8.66;54.36;98554.13;2392020;82;28065;-80
2021/11/30 04:25:42;;;;;;;1.62;0.90;;;;;;;8.65;54.36;98556.30;2407492;82;25664;-80
2021/11/30 04:29:05;;;;;;;0.82;0.65;;;;;;;8.66;54.35;98558.45;2403437;82;25823;-78
2021/11/30 04:32:49;;;;;;;1.67;0.90;;;;;;;8.65;54.34;98552.40;2393273;82;26051;-79
2021/11/30 04:36:10;;;;;;;3.17;0.90;;;;;;;8.64;54.30;98559.77;2387348;80;26002;-78
2021/11/30 04:39:33;;;;;;;1.47;0.88;;;;;;;8.64;54.28;98561.47;2377361;82;26242;-78
2021/11/30 04:43:17;;;;;;;1.55;1.00;;;;;;;8.63;54.28;98564.50;2393003;82;25644;-80
2021/11/30 04:46:54;;;;;;;1.02;0.80;;;;;;;8.62;54.24;98565.81;2396910;82;25662;-82
2021/11/30 04:50:21;;;;;;;1.42;1.00;;;;;;;8.62;54.21;98573.17;2391828;82;25700;-80
2021/11/30 04:53:52;;;;;;;1.15;0.78;;;;;;;8.61;54.20;98566.69;2396372;82;26003;-82
2021/11/30 04:57:24;;;;;;;0.98;0.70;;;;;;;8.59;54.17;98564.06;2401959;82;25680;-81
2021/11/30 05:01:02;;;;;;;1.85;0.80;;;;;;;8.59;54.18;98569.70;2401039;82;25870;-82
2021/11/30 05:04:24;;;;;;;1.17;0.90;;;;;;;8.57;54.16;98570.98;2405483;82;25852;-78
2021/11/30 05:07:46;;;;;;;1.70;0.88;;;;;;;8.59;54.17;98572.30;2406398;82;25721;-80
2021/11/30 05:11:09;;;;;;;1.52;0.72;;;;;;;8.58;54.18;98577.06;2405005;82;25672;-80
2021/11/30 05:14:30;;;;;;;1.75;0.75;;;;;;;8.58;54.19;98583.56;2389693;82;26106;-79
2021/11/30 05:17:59;;;;;;;0.90;0.60;;;;;;;8.57;54.20;98578.77;2397417;80;27563;-82
2021/11/30 05:21:25;;;;;;;1.45;0.70;;;;;;;8.55;54.16;98579.66;2340656;83;35073;-81
2021/11/30 05:24:50;;;;;;;0.85;0.82;;;;;;;8.55;54.18;98583.11;2297489;84;25874;-80
2021/11/30 05:28:17;;;;;;;1.30;0.88;;;;;;;8.54;54.17;98589.17;2323269;83;25901;-81
2021/11/30 05:32:00;;;;;;;0.70;0.70;;;;;;;8.50;54.17;98590.90;2301678;84;26549;-79
2021/11/30 05:35:21;;;;;;;0.80;0.68;;;;;;;8.50;54.15;98592.20;2315791;82;25772;-82
2021/11/30 05:38:51;;;;;;;1.27;0.90;;;;;;;8.49;54.14;98591.73;2320480;84;27605;-82
2021/11/30 05:42:21;;;;;;;1.00;0.90;;;;;;;8.47;54.13;98592.19;2295527;84;25744;-82
2021/11/30 05:45:58;;;;;;;1.52;1.30;;;;;;;8.46;54.14;98593.45;2294795;83;25773;-81
2021/11/30 05:49:23;;;;;;;1.90;0.90;;;;;;;8.44;54.13;98595.20;2324906;84;25723;-82
2021/11/30 05:52:52;;;;;;;1.00;0.75;;;;;;;8.41;54.14;98592.59;2314930;84;25997;-81
2021/11/30 05:56:13;;;;;;;1.05;0.80;;;;;;;8.39;54.12;98604.69;2322999;84;25582;-81
2021/11/30 05:59:39;;;;;;;0.80;0.80;;;;;;;8.36;54.14;98604.20;2319331;84;25857;-81
2021/11/30 06:03:07;;;;;;;1.47;0.98;;;;;;;8.37;54.14;98613.75;2295643;83;26067;-80
2021/11/30 06:06:44;;;;;;;0.80;0.80;;;;;;;8.35;54.16;98606.81;2326038;84;26624;-80
2021/11/30 06:10:25;;;;;;;1.52;0.98;;;;;;;8.35;54.18;98612.00;2305406;84;25282;-81
2021/11/30 06:13:46;;;;;;;2.12;1.15;;;;;;;8.32;54.17;98603.77;2308280;84;26116;-79
2021/11/30 06:17:40;;;;;;;1.37;0.90;;;;;;;8.33;54.16;98606.78;2298942;83;25927;-79
2021/11/30 06:21:07;;;;;;;1.17;1.10;;;;;;;8.34;54.16;98612.44;2359925;82;25735;-81
2021/11/30 06:24:28;;;;;;;1.32;1.07;;;;;;;8.37;54.15;98607.66;2194905;86;25692;-80
2021/11/30 06:27:58;;;;;;;1.42;1.25;;;;;;;8.36;54.13;98604.20;2191004;82;25804;-80
2021/11/30 06:31:25;;;;;;;1.17;1.00;;;;;;;8.38;54.12;98605.13;2189500;89;25786;-80
2021/11/30 06:35:20;;;;;;;1.10;0.80;;;;;;;8.39;54.10;98598.20;2219949;87;25910;-83
2021/11/30 06:38:41;;;;;;;1.70;0.83;;;;;;;8.39;54.10;98600.80;2149629;90;25777;-81
2021/11/30 06:42:03;;;;;;;0.80;0.80;;;;;;;8.40;54.08;98603.38;2220727;87;25653;-81
2021/11/30 06:45:24;;;;;;;3.17;1.10;;;;;;;8.43;54.03;98603.83;2220430;86;26038;-81
2021/11/30 06:53:02;;;;;;;1.00;0.90;;;;;;;8.40;53.99;98594.30;2202877;89;26384;-82
2021/11/30 06:56:57;;;;;;;0.80;0.80;;;;;;;8.42;53.99;98602.11;2127607;90;25783;-81
2021/11/30 07:04:07;;;;;;;1.27;0.95;;;;;;;8.43;54.02;98605.13;2221284;88;26138;-80
2021/11/30 07:07:52;;;;;;;1.37;1.27;;;;;;;8.43;54.06;98597.34;2228666;87;25751;-81
2021/11/30 07:15:27;;;;;;;1.20;1.07;;;;;;;8.46;54.06;98589.56;2243759;82;25698;-82
2021/11/30 07:23:32;;;;;;;1.50;1.35;;;;;;;8.47;54.07;98579.20;2217057;87;25684;-80
2021/11/30 07:27:27;;;;;;;;;;;;;;;;;;;;;
2021/11/30 07:31:29;;;;;;;1.82;1.20;;;;;;;8.54;54.04;98571.41;2222261;86;26249;-82
2021/11/30 07:35:05;;;;;;;1.40;1.30;;;;;;;8.53;54.00;98571.84;2226687;87;25778;-80
2021/11/30 07:38:26;;;;;;;2.12;1.25;;;;;;;8.56;53.96;98566.66;2258152;85;26618;-79
2021/11/30 07:41:48;;;;;;;1.60;1.50;;;;;;;8.58;53.94;98567.53;2260189;86;25880;-79
2021/11/30 07:45:20;;;;;;;2.30;1.60;;;;;;;8.58;53.93;98566.67;2260686;86;26679;-80
2021/11/30 07:48:46;;;;;;;1.92;1.80;;;;;;;8.56;53.88;98554.97;2259256;85;25699;-80
2021/11/30 07:52:12;;;;;;;3.25;1.92;;;;;;;8.59;53.87;98552.37;2294868;85;25699;-79
2021/11/30 07:55:49;;;;;;;3.02;2.27;;;;;;;8.59;53.84;98548.92;2275710;85;25921;-81
2021/11/30 07:59:48;;;;;;;2.98;2.22;;;;;;;8.57;53.82;98541.55;2272234;84;25732;-79
2021/11/30 08:03:26;;;;;;;2.50;1.98;;;;;;;8.58;53.77;98527.72;2206379;87;25703;-81
2021/11/30 08:06:47;;;;;;;2.30;1.72;;;;;;;8.59;53.75;98527.70;2207889;87;25986;-79
2021/11/30 08:10:14;;;;;;;3.37;2.10;;;;;;;8.60;53.74;98535.92;2224333;87;25886;-79
2021/11/30 08:13:35;;;;;;;2.30;2.05;;;;;;;8.61;53.74;98523.83;2217677;87;26386;-80
2021/11/30 08:17:02;;;;;;;2.40;1.42;;;;;;;8.63;53.74;98520.78;2235026;86;25764;-80
2021/11/30 08:20:26;;;;;;;2.40;2.20;;;;;;;8.67;53.73;98509.53;2236632;86;25979;-80
2021/11/30 08:23:52;;;;;;;2.92;1.80;;;;;;;8.73;53.69;98509.10;2263780;85;25657;-80
2021/11/30 08:27:18;;;;;;;2.42;1.92;;;;;;;8.75;53.65;98505.23;2256976;85;25821;-81
2021/11/30 08:31:01;;;;;;;2.87;2.20;;;;;;;8.80;53.64;98498.72;2259752;85;26476;-80
2021/11/30 08:34:44;;;;;;;3.05;2.22;;;;;;;8.85;53.59;98492.67;2260460;86;26141;-80
2021/11/30 08:38:41;;;;;;;3.10;2.20;;;;;;;8.93;53.53;98487.47;2331299;83;25701;-81
2021/11/30 08:42:05;;;;;;;2.75;2.52;;;;;;;8.99;53.43;98474.47;2346578;83;25969;-81
2021/11/30 08:45:26;;;;;;;3.27;2.70;;;;;;;9.08;53.35;98475.77;2335774;83;25855;-81
2021/11/30 08:48:47;;;;;;;2.20;2.00;;;;;;;9.19;53.24;98471.86;2291190;84;26216;-79
2021/11/30 08:52:15;;;;;;;3.40;3.10;;;;;;;9.35;53.08;98461.86;2280323;85;25685;-78
2021/11/30 08:55:47;;;;;;;2.85;2.10;;;;;;;9.63;52.92;98453.97;2285233;85;26030;-80
2021/11/30 08:59:39;;;;;;;2.52;2.33;;;;;;;10.11;52.57;98452.02;2272896;85;25964;-79
2021/11/30 09:03:22;;;;;;;2.87;2.62;;;;;;;10.69;52.31;98453.39;2284547;85;25611;-80
2021/11/30 09:06:49;;;;;;;2.08;1.98;;;;;;;11.56;51.65;98441.68;2276712;85;25706;-80
2021/11/30 09:10:19;;;;;;;2.62;2.42;;;;;;;12.80;50.38;98422.58;2290948;86;25969;-81
2021/11/30 09:13:40;;;;;;;2.08;1.60;;;;;;;12.92;49.37;98423.20;2292188;86;26123;-80
2021/11/30 09:17:17;;;;;;;2.58;2.02;;;;;;;13.08;48.90;98384.58;2293873;84;30858;-80
2021/11/30 09:20:48;;;;;;;2.10;1.87;;;;;;;13.32;48.27;98408.59;2293525;83;25534;-80
2021/11/30 09:24:15;;;;;;;2.65;1.98;;;;;;;13.53;47.79;98406.84;2328564;84;26099;-80
2021/11/30 09:27:39;;;;;;;2.70;1.67;;;;;;;13.44;47.49;98403.98;2356285;83;25603;-79
2021/11/30 09:31:04;;;;;;;1.95;1.75;;;;;;;13.30;47.29;98397.30;2332182;82;26286;-80
2021/11/30 09:34:34;;;;;;;1.90;1.67;;;;;;;13.30;47.29;98397.30;2358606;82;26491;-81
2021/11/30 09:37:58;;;;;;;3.37;1.92;;;;;;;13.11;47.28;98388.89;2352805;82;30901;-79
2021/11/30 09:41:40;;;;;;;2.20;1.80;;;;;;;12.59;47.48;98334.48;2310963;83;25940;-81
2021/11/30 09:45:39;;;;;;;2.33;1.90;;;;;;;12.59;47.48;98334.48;2339398;83;25659;-81
2021/11/30 09:49:07;;;;;;;1.70;1.60;;;;;;;12.55;47.64;98365.91;2333297;83;26227;-79
2021/11/30 09:52:31;;;;;;;2.17;1.37;;;;;;;12.36;47.79;98349.69;2259616;85;26049;-77
2021/11/30 09:56:14;;;;;;;1.65;1.20;;;;;;;12.29;49.78;98351.53;2222977;86;25546;-76
2021/11/30 09:59:53;;;;;;;1.72;1.37;;;;;;;12.38;49.53;98343.52;2214059;86;25784;-80
2021/11/30 10:03:15;;;;;;;2.35;1.30;;;;;;;12.28;49.73;98335.41;2227655;85;26594;-82
2021/11/30 10:06:36;;;;;;;3.47;1.70;;;;;;;12.14;49.77;98333.02;2266493;85;25805;-82
2021/11/30 10:10:33;;;;;;;2.05;1.60;;;;;;;12.03;49.83;98338.86;2236955;85;25715;-83
2021/11/30 10:14:14;;;;;;;2.60;1.60;;;;;;;11.91;49.87;98318.14;2241120;83;25800;-82
2021/11/30 10:17:37;;;;;;;2.12;1.57;;;;;;;11.75;49.82;98310.52;2278303;83;25735;-81
2021/11/30 10:21:20;;;;;;;3.40;1.50;;;;;;;11.61;49.70;98304.64;2296453;84;26315;-75
2021/11/30 10:24:39;;;;;;;2.15;1.92;;;;;;;11.48;49.71;98286.13;2255632;85;25684;-84
2021/11/30 10:28:28;;;;;;;4.90;2.00;;;;;;;11.29;49.67;98283.73;2219001;85;26057;-81
2021/11/30 10:32:18;;;;;;;;;;;;;;;;;;;;;
2021/11/30 10:35:39;;;;;;;2.37;1.82;;;;;;;10.98;49.78;98281.10;2266820;85;26673;-81
2021/11/30 10:39:00;;;;;;;2.25;2.05;;;;;;;10.87;49.91;98269.05;2271128;85;25760;-80
2021/11/30 10:43:00;;;;;;;5.85;2.08;;;;;;;10.79;50.00;98263.05;2234779;85;25781;-82
2021/11/30 10:46:38;;;;;;;2.30;2.00;;;;;;;10.73;50.09;98260.53;2253897;87;25984;-82
2021/11/30 10:50:25;;;;;;;3.62;2.52;;;;;;;10.63;50.20;98241.94;2351925;80;26378;-82
2021/11/30 10:54:08;;;;;;;4.45;2.58;;;;;;;10.52;50.27;98228.18;2388846;80;26525;-81
2021/11/30 10:57:30;;;;;;;3.83;2.77;;;;;;;10.45;50.32;98225.22;2385640;80;26164;-81
2021/11/30 11:01:20;;;;;;;3.60;2.92;;;;;;;10.45;50.38;98213.50;2403695;81;25939;-77
2021/11/30 11:04:49;;;;;;;3.20;2.90;;;;;;;10.43;50.43;98205.72;2386606;80;26643;-79
2021/11/30 11:08:23;;;;;;;3.22;2.92;;;;;;;10.39;50.51;98187.96;2395210;80;26305;-82
2021/11/30 11:12:08;;;;;;;2.98;2.67;;;;;;;10.38;50.56;98187.95;2381906;81;26485;-79
2021/11/30 11:15:41;;;;;;;3.42;3.12;;;;;;;10.37;50.60;98186.24;2269309;83;26128;-79
2021/11/30 11:19:40;;;;;;;3.83;3.42;;;;;;;10.33;50.65;98171.53;2262078;86;26233;-80
2021/11/30 11:23:07;;;;;;;3.42;3.12;;;;;;;10.33;50.68;98160.67;2261231;86;26082;-80
2021/11/30 11:26:57;;;;;;;3.83;3.50;;;;;;;10.34;50.73;98135.49;2155466;88;26239;-80
2021/11/30 11:30:27;;;;;;;5.20;3.47;;;;;;;10.35;50.71;98129.39;2133313;90;25577;-78
2021/11/30 11:33:51;;;;;;;3.70;3.30;;;;;;;10.35;50.71;98123.73;2122050;90;26619;-79
2021/11/30 11:37:12;;;;;;;3.42;3.10;;;;;;;10.34;50.71;98103.80;2142944;90;26394;-80
2021/11/30 11:40:54;;;;;;;3.67;3.33;;;;;;;10.33;50.75;98098.17;2137460;90;26235;-78
2021/11/30 11:44:16;;;;;;;3.50;3.20;;;;;;;10.31;50.74;98080.84;2130900;88;26309;-79
2021/11/30 11:47:57;;;;;;;3.90;3.45;;;;;;;10.32;50.77;98074.30;2136393;90;25892;-80
2021/11/30 11:51:47;;;;;;;5.15;4.17;;;;;;;10.31;50.78;98067.81;2153204;89;25942;-80
2021/11/30 11:55:27;;;;;;;4.83;3.50;;;;;;;10.27;50.81;98055.28;2116989;91;25722;-80
2021/11/30 11:59:20;;;;;;;4.42;4.03;;;;;;;10.21;50.81;98042.74;2108062;90;26099;-81
2021/11/30 12:03:07;;;;;;;5.33;4.25;;;;;;;10.14;50.83;98029.80;2142000;88;26459;-80
2021/11/30 12:07:02;;;;;;;4.42;4.00;;;;;;;10.05;50.90;98019.48;2218812;87;26261;-79
2021/11/30 12:10:38;;;;;;;4.22;3.70;;;;;;;9.99;51.30;98003.08;2234257;87;25751;-78
2021/11/30 12:14:22;;;;;;;7.67;4.87;;;;;;;10.06;51.87;97991.75;2226558;88;25460;-79
2021/11/30 12:17:41;;;;;;;5.80;4.05;;;;;;;10.08;52.28;97977.80;2087064;92;25891;-82
2021/11/30 12:21:27;;;;;;;5.25;4.55;;;;;;;10.02;52.37;97963.56;2091570;92;25749;-80
2021/11/30 12:24:58;;;;;;;5.33;4.60;;;;;;;9.94;52.45;97942.85;2147334;91;25778;-79
2021/11/30 12:28:38;;;;;;;6.70;4.92;;;;;;;9.87;52.48;97946.42;2143176;91;26283;-81
2021/11/30 12:32:16;;;;;;;5.05;4.65;;;;;;;9.81;52.52;97934.78;2178787;88;25819;-81
2021/11/30 12:35:58;;;;;;;5.42;4.90;;;;;;;9.76;52.47;97918.83;2226603;87;25821;-80
2021/11/30 12:39:19;;;;;;;8.78;6.00;;;;;;;9.73;52.40;97917.56;2235527;88;26314;-79
2021/11/30 12:42:48;;;;;;;4.83;4.47;;;;;;;9.67;52.39;97908.09;2235622;87;29489;-80
2021/11/30 12:47:03;;;;;;;5.35;4.67;;;;;;;9.62;52.37;97893.84;2224203;88;25743;-81
2021/11/30 12:50:32;;;;;;;4.60;4.20;;;;;;;9.58;52.34;97897.78;2215984;88;26003;-79
2021/11/30 12:54:25;;;;;;;5.33;4.85;;;;;;;9.51;52.35;97883.99;2251725;84;32350;-80
2021/11/30 12:58:06;;;;;;;7.08;4.50;;;;;;;9.45;52.36;97874.99;2355010;83;25677;-82
2021/11/30 13:01:36;;;;;;;5.20;4.70;;;;;;;9.42;52.30;97860.73;2321041;83;26262;-81
2021/11/30 13:05:18;;;;;;;4.90;4.40;;;;;;;9.34;52.32;97859.50;2365664;83;25724;-80
2021/11/30 13:09:23;;;;;;;4.70;4.30;;;;;;;9.30;52.31;97847.86;2371269;83;25981;-79
2021/11/30 13:12:48;;;;;;;4.50;4.10;;;;;;;9.25;52.21;97832.33;2283234;85;25766;-78
2021/11/30 13:16:09;;;;;;;4.70;4.30;;;;;;;9.23;52.16;97819.78;2261492;86;26458;-81
2021/11/30 13:19:37;;;;;;;5.97;4.62;;;;;;;9.19;52.13;97816.36;2236330;88;25667;-78
2021/11/30 13:23:00;;;;;;;5.35;4.58;;;;;;;9.18;52.15;97807.30;2241881;86;25760;-80
2021/11/30 13:26:24;;;;;;;6.85;5.08;;;;;;;9.14;52.05;97795.19;2262160;85;25871;-80
2021/11/30 13:29:56;;;;;;;6.85;5.37;;;;;;;9.10;51.97;97782.67;2242655;86;25740;-79
2021/11/30 13:33:21;;;;;;;4.67;4.28;;;;;;;9.09;51.95;97778.81;2281951;84;25727;-81
2021/11/30 13:36:42;;;;;;;5.40;4.70;;;;;;;9.09;51.89;97765.82;2252530;85;25819;-81
2021/11/30 13:40:09;;;;;;;4.73;4.33;;;;;;;9.07;51.86;97757.17;2236400;87;28685;-79
2021/11/30 13:43:36;;;;;;;5.40;4.90;;;;;;;9.05;51.83;97740.31;2292310;84;25660;-77
2021/11/30 13:46:57;;;;;;;5.45;4.80;;;;;;;9.04;51.81;97734.67;2352368;81;25766;-80
2021/11/30 13:50:21;;;;;;;5.23;4.30;;;;;;;9.03;51.77;97735.56;2383295;82;29008;-80
2021/11/30 13:57:44;;;;;;;6.50;4.22;;;;;;;8.98;51.72;97722.64;2192299;88;25864;-76
2021/11/30 14:01:46;;;;;;;8.48;4.53;;;;;;;8.95;51.76;97702.34;2192281;88;25795;-77
2021/11/30 14:05:00;;;;;;;4.25;3.85;;;;;;;8.91;51.77;97693.72;2192476;88;25805;-82
2021/11/30 14:08:21;;;;;;;4.97;4.53;;;;;;;8.89;51.77;97691.57;2167746;90;25884;-77
2021/11/30 14:11:59;;;;;;;6.37;4.53;;;;;;;8.86;51.80;97683.81;2156415;90;25779;-76
2021/11/30 14:15:21;;;;;;;5.05;4.60;;;;;;;8.84;51.88;97693.39;2166046;90;25831;-78
2021/11/30 14:19:04;;;;;;;5.03;2.17;;;;;;;8.80;51.88;97670.90;2169613;90;25323;-79
2021/11/30 14:22:38;;;;;;;9.13;3.62;;;;;;;9.07;57.58;97659.28;2164968;88;25922;-79
2021/11/30 14:26:08;;;;;;;4.28;3.87;;;;;;;9.46;55.67;97654.38;2170136;89;26729;-80
2021/11/30 14:29:39;;;;;;;7.25;3.58;;;;;;;9.39;55.32;97644.52;2160030;89;25784;-77
2021/11/30 14:33:15;;;;;;;3.87;3.40;;;;;;;9.41;55.66;97631.48;2171714;88;25740;-76
2021/11/30 14:36:36;;;;;;;10.23;4.83;;;;;;;9.39;55.27;97625.47;2221487;86;25694;-77
2021/11/30 14:40:29;;;;;;;7.10;4.70;;;;;;;9.31;55.10;97615.61;2229587;88;28050;-76
2021/11/30 14:43:50;;;;;;;4.53;4.12;;;;;;;9.19;55.04;97601.94;2229602;88;26160;-78
2021/11/30 14:47:17;;;;;;;4.87;4.37;;;;;;;9.07;55.01;97594.76;2230989;83;28144;-76
2021/11/30 14:50:58;;;;;;;5.33;4.78;;;;;;;8.97;55.00;97593.59;2247398;87;25819;-77
2021/11/30 14:54:20;;;;;;;5.28;4.35;;;;;;;8.90;54.98;97598.45;2267278;85;25742;-77
2021/11/30 14:57:42;;;;;;;6.85;4.37;;;;;;;8.84;54.96;97577.80;2265949;85;25770;-76
2021/11/30 15:01:19;;;;;;;5.40;4.60;;;;;;;8.79;55.01;97569.20;2348833;82;26347;-76
2021/11/30 15:04:39;;;;;;;5.22;4.72;;;;;;;8.73;54.97;97564.08;2385616;82;25799;-77
2021/11/30 15:08:00;;;;;;;5.63;5.07;;;;;;;8.67;54.96;97547.28;2331909;82;28382;-75
2021/11/30 15:11:30;;;;;;;6.15;5.42;;;;;;;8.63;54.98;97543.88;2344541;82;25815;-77
2021/11/30 15:14:51;;;;;;;6.58;5.65;;;;;;;8.59;54.92;97542.65;2332669;83;25634;-76
2021/11/30 15:18:15;;;;;;;7.33;5.60;;;;;;;8.57;54.96;97541.80;2338995;82;25841;-82
2021/11/30 15:22:07;;;;;;;6.95;5.00;;;;;;;8.54;54.90;97536.65;2385113;82;25623;-77
2021/11/30 15:25:28;;;;;;;7.60;5.37;;;;;;;8.49;54.90;97531.09;2329716;82;26110;-77
2021/11/30 15:28:50;;;;;;;6.33;4.80;;;;;;;8.47;54.90;97513.40;2284048;84;25448;-75
2021/11/30 15:32:29;;;;;;;9.50;4.72;;;;;;;8.44;54.87;97513.44;2284164;84;25664;-75
2021/11/30 15:36:16;;;;;;;7.25;4.60;;;;;;;8.42;54.86;97503.95;2259760;85;25921;-77
2021/11/30 15:39:39;;;;;;;4.78;4.30;;;;;;;8.37;54.79;97499.21;2278175;85;26414;-75
2021/11/30 15:43:01;;;;;;;5.83;4.67;;;;;;;8.35;54.72;97486.71;2243993;85;25394;-78
2021/11/30 15:46:23;;;;;;;5.17;4.53;;;;;;;8.31;54.73;97488.50;2244784;88;26095;-75
2021/11/30 15:49:51;;;;;;;5.50;4.60;;;;;;;8.29;54.67;97478.12;2240442;88;26095;-75
2021/11/30 15:53:13;;;;;;;4.92;3.95;;;;;;;8.28;54.66;97478.16;2243423;87;25815;-76
2021/11/30 16:00:15;;;;;;;4.65;3.87;;;;;;;8.24;54.60;97469.55;2282974;86;25444;-76
2021/11/30 16:03:36;;;;;;;4.40;4.00;;;;;;;8.23;54.59;97457.47;2284182;86;25705;-75
2021/11/30 16:06:57;;;;;;;4.28;3.87;;;;;;;8.24;54.55;97454.43;2284071;85;25746;-76
2021/11/30 16:10:18;;;;;;;5.03;4.00;;;;;;;8.22;54.55;97445.80;2283221;83;26128;-75
2021/11/30 16:13:39;;;;;;;3.50;3.20;;;;;;;8.21;54.50;97441.05;2280665;86;28019;-75
2021/11/30 16:17:01;;;;;;;4.20;3.00;;;;;;;8.21;54.52;97433.27;2312990;85;27107;-76
2021/11/30 16:20:24;;;;;;;4.33;3.92;;;;;;;8.21;54.48;97426.78;2320455;85;25766;-76
2021/11/30 16:23:46;;;;;;;4.80;3.50;;;;;;;8.23;54.48;97426.33;2324083;82;26035;-75
2021/11/30 16:27:13;;;;;;;4.00;3.47;;;;;;;8.22;54.48;97423.30;2361038;82;25797;-75
2021/11/30 16:30:40;;;;;;;4.03;3.62;;;;;;;8.22;54.47;97425.04;2322940;84;25749;-75
2021/11/30 16:34:10;;;;;;;5.85;4.10;;;;;;;8.20;54.51;97415.11;2373553;82;25638;-75
2021/11/30 16:37:29;;;;;;;4.60;3.77;;;;;;;8.21;54.51;97419.44;2379317;83;25648;-79
2021/11/30 16:40:52;;;;;;;4.58;3.05;;;;;;;8.21;54.53;97416.40;2376056;82;25736;-76
2021/11/30 16:44:14;;;;;;;3.75;3.33;;;;;;;8.22;54.53;97415.52;2364479;82;25962;-75
2021/11/30 16:47:38;;;;;;;5.25;3.40;;;;;;;8.22;54.53;97407.73;2341054;80;25813;-77
2021/11/30 16:50:59;;;;;;;5.00;4.17;;;;;;;8.23;54.54;97400.38;2350295;82;25709;-75
2021/11/30 16:54:21;;;;;;;3.58;3.27;;;;;;;8.23;54.55;97404.69;2358031;82;25963;-77
2021/11/30 16:57:42;;;;;;;4.17;3.60;;;;;;;8.21;54.59;97388.30;2338914;84;25630;-75
2021/11/30 17:01:04;;;;;;;4.33;3.55;;;;;;;8.22;54.60;97394.75;2333572;84;25716;-75
2021/11/30 17:04:25;;;;;;;5.08;3.83;;;;;;;8.25;54.64;97390.81;2345900;82;25965;-76
2021/11/30 17:07:46;;;;;;;4.55;3.87;;;;;;;8.27;54.64;97390.81;2374951;82;25739;-76
2021/11/30 17:11:23;;;;;;;3.47;2.87;;;;;;;8.27;54.65;97383.88;2343001;84;27994;-75
2021/11/30 17:14:55;;;;;;;4.62;3.95;;;;;;;8.29;54.64;97386.44;2294599;83;25596;-75
2021/11/30 17:18:17;;;;;;;5.87;3.67;;;;;;;8.27;54.65;97383.88;2311108;84;25742;-76